Time;durP1;ratioP1;P1;durP2;ratioP2;P2;SDS_P1;SDS_P2;PMS_P1;PMS_P2;Temp;Humidity;BMP_temperature;BMP_pressure;BME280_temperature;BME280_humidity;BME280_pressure;Samples;Min_cycle;Max_cycle;Signal;HPM_P1;HPM_P2
2022/09/18 00:01:24;;;;;;;5.37;4.00;;;;;;;16.85;83.83;99305.66;1710542;83;25786;-69
2022/09/18 00:03:54;;;;;;;4.53;4.12;;;;;;;16.85;83.79;99305.13;1710457;83;27471;-68
2022/09/18 00:06:25;;;;;;;4.35;3.92;;;;;;;16.86;83.80;99305.94;1709801;83;25746;-68
2022/09/18 00:08:56;;;;;;;5.53;3.92;;;;;;;16.84;83.78;99300.73;1710276;83;25764;-69
2022/09/18 00:11:27;;;;;;;4.00;3.60;;;;;;;16.83;83.85;99307.20;1710425;83;25836;-69
2022/09/18 00:13:54;;;;;;;5.22;3.62;;;;;;;16.83;83.95;99312.64;1710672;82;25730;-69
2022/09/18 00:16:23;;;;;;;3.98;3.58;;;;;;;16.82;84.00;99308.25;1710644;82;28746;-69
2022/09/18 00:18:50;;;;;;;7.37;4.00;;;;;;;16.83;83.97;99290.91;1710726;83;25776;-69
2022/09/18 00:21:21;;;;;;;3.47;3.17;;;;;;;16.83;83.98;99281.41;1710512;83;26369;-69
2022/09/18 00:23:48;;;;;;;3.50;3.20;;;;;;;16.83;83.84;99274.63;1710728;83;26354;-70
2022/09/18 00:26:17;;;;;;;5.20;2.95;;;;;;;16.86;83.97;99262.48;1710610;83;25741;-68
2022/09/18 00:28:45;;;;;;;6.25;3.45;;;;;;;16.87;83.91;99261.44;1710738;83;27541;-68
2022/09/18 00:31:17;;;;;;;3.60;3.08;;;;;;;16.87;83.68;99258.73;1710521;82;25841;-68
2022/09/18 00:33:44;;;;;;;4.75;3.65;;;;;;;16.87;83.79;99254.14;1705201;82;25794;-69
2022/09/18 00:36:15;;;;;;;7.80;4.10;;;;;;;16.91;84.00;99249.11;1704945;84;26138;-67
2022/09/18 00:38:42;;;;;;;5.12;4.10;;;;;;;16.92;83.81;99248.58;1716971;82;25746;-70
2022/09/18 00:41:14;;;;;;;4.25;3.75;;;;;;;16.92;83.88;99248.58;1731354;82;27478;-70
2022/09/18 00:43:41;;;;;;;8.00;5.30;;;;;;;16.94;83.83;99237.86;1737817;82;25906;-69
2022/09/18 00:46:31;;;;;;;9.23;6.53;;;;;;;16.96;83.85;99230.84;1737902;82;25818;-69
2022/09/18 00:49:15;;;;;;;14.63;6.03;;;;;;;16.98;83.99;99230.93;1737222;81;26473;-69
2022/09/18 00:51:45;;;;;;;8.63;6.70;;;;;;;17.02;84.22;99222.67;1738082;82;25472;-70
2022/09/18 00:54:39;;;;;;;9.38;6.55;;;;;;;17.05;84.27;99222.22;1739286;82;28278;-69
2022/09/18 00:57:14;;;;;;;9.25;6.30;;;;;;;17.08;84.31;99214.69;1738892;81;25785;-69
2022/09/18 00:59:46;;;;;;;7.67;6.10;;;;;;;17.11;84.37;99215.63;1738831;81;25799;-69
2022/09/18 01:02:13;;;;;;;9.43;7.20;;;;;;;17.10;83.94;99219.39;1738992;82;25755;-70
2022/09/18 01:04:41;;;;;;;10.65;5.62;;;;;;;17.09;84.13;99207.67;1738848;81;25873;-69
2022/09/18 01:07:34;;;;;;;13.83;7.22;;;;;;;17.11;84.06;99206.94;1739097;81;27536;-70
2022/09/18 01:10:23;;;;;;;16.03;7.10;;;;;;;17.13;84.07;99205.34;1739518;81;25764;-70
2022/09/18 01:13:10;;;;;;;7.62;6.55;;;;;;;17.14;84.11;99207.87;1739177;82;25771;-70
2022/09/18 01:15:54;;;;;;;14.05;6.90;;;;;;;17.14;83.97;99201.58;1739067;81;26569;-70
2022/09/18 01:18:29;;;;;;;12.35;6.83;;;;;;;17.15;83.91;99204.61;1722602;83;25724;-69
2022/09/18 01:21:15;;;;;;;11.45;7.15;;;;;;;17.17;83.94;99199.27;1722740;83;28159;-69
2022/09/18 01:24:14;;;;;;;11.18;7.12;;;;;;;17.18;83.99;99192.78;1722334;83;26379;-69
2022/09/18 01:26:58;;;;;;;7.20;5.87;;;;;;;17.19;83.75;99198.52;1709204;83;26779;-69
2022/09/18 01:29:48;;;;;;;10.10;6.55;;;;;;;17.20;83.87;99199.38;1724159;81;25798;-70
2022/09/18 01:32:30;;;;;;;7.90;6.05;;;;;;;17.23;84.07;99199.46;1699886;84;25863;-70
2022/09/18 01:35:12;;;;;;;16.30;6.30;;;;;;;17.23;83.89;99204.35;1710660;83;27469;-69
2022/09/18 01:37:53;;;;;;;7.60;6.05;;;;;;;17.17;83.27;99206.05;1699852;84;25908;-70
2022/09/18 01:40:28;;;;;;;8.88;6.10;;;;;;;17.11;83.32;99203.40;1694935;84;25788;-69
2022/09/18 01:42:59;;;;;;;10.63;6.17;;;;;;;17.13;83.91;99204.84;1694881;84;25767;-70
2022/09/18 01:45:49;;;;;;;8.95;6.37;;;;;;;17.09;83.54;99204.95;1695508;84;25743;-70
2022/09/18 01:48:35;;;;;;;7.75;6.28;;;;;;;16.99;83.39;99204.59;1694880;83;28354;-68
2022/09/18 01:51:23;;;;;;;11.33;6.90;;;;;;;16.87;83.74;99197.62;1695270;84;25787;-70
2022/09/18 01:54:05;;;;;;;8.25;6.30;;;;;;;16.87;84.22;99206.62;1695203;84;25787;-70
2022/09/18 01:56:50;;;;;;;10.08;6.67;;;;;;;16.76;84.08;99193.70;1695177;84;25923;-70
2022/09/18 01:59:21;;;;;;;10.08;6.25;;;;;;;16.68;84.21;99195.31;1695280;84;25280;-69
2022/09/18 02:01:56;;;;;;;6.72;5.75;;;;;;;16.58;85.28;99194.42;1693928;83;27536;-68
2022/09/18 02:04:28;;;;;;;9.40;5.40;;;;;;;16.45;85.68;99193.91;1664269;85;25912;-69
2022/09/18 02:07:42;;;;;;;6.10;5.47;;;;;;;16.30;85.82;99182.48;1655193;85;25858;-70
2022/09/18 02:10:09;;;;;;;5.03;4.37;;;;;;;16.25;86.53;99179.90;1648414;87;25815;-69
2022/09/18 02:12:40;;;;;;;7.33;5.25;;;;;;;16.26;87.12;99187.50;1648542;87;26309;-69
2022/09/18 02:15:13;;;;;;;8.53;4.42;;;;;;;16.27;87.12;99185.92;1602727;87;27503;-69
2022/09/18 02:17:59;;;;;;;6.00;4.72;;;;;;;16.23;87.40;99198.27;1648058;87;25751;-70
2022/09/18 02:20:30;;;;;;;7.00;4.97;;;;;;;16.22;87.49;99197.95;1647337;87;25907;-69
2022/09/18 02:23:02;;;;;;;6.00;4.28;;;;;;;16.23;87.54;99196.05;1648761;85;25800;-69
2022/09/18 02:25:38;;;;;;;11.57;4.50;;;;;;;16.21;87.84;99207.13;1648494;85;25776;-69
2022/09/18 02:28:07;;;;;;;4.37;3.98;;;;;;;16.16;88.37;99216.44;1648098;85;28359;-69
2022/09/18 02:30:38;;;;;;;6.08;4.75;;;;;;;15.99;89.36;99226.05;1668439;84;25553;-69
2022/09/18 02:33:30;;;;;;;8.68;4.00;;;;;;;15.88;90.29;99236.48;1652641;86;25748;-70
2022/09/18 02:36:17;;;;;;;8.43;4.20;;;;;;;15.75;92.93;99229.66;1652133;86;25978;-70
2022/09/18 02:39:18;;;;;;;5.40;3.75;;;;;;;15.61;92.98;99219.33;1663655;85;25751;-68
2022/09/18 02:42:12;;;;;;;5.12;3.22;;;;;;;15.55;94.29;99214.74;1677156;85;27526;-70
2022/09/18 02:45:16;;;;;;;2.42;2.22;;;;;;;15.44;94.67;99218.38;1676290;85;25996;-69
2022/09/18 02:48:05;;;;;;;;;;;;;;;15.36;94.35;99199.61;1684257;81;25815;-70
2022/09/18 02:50:54;;;;;;;4.97;2.27;;;;;;;15.37;93.68;99149.80;1704898;84;25915;-69
2022/09/18 02:53:46;;;;;;;4.20;2.22;;;;;;;15.40;93.78;99126.87;1705683;84;25488;-70
2022/09/18 02:56:42;;;;;;;3.20;2.12;;;;;;;15.45;93.60;99121.14;1704782;84;27499;-70
2022/09/18 02:59:23;;;;;;;2.20;2.00;;;;;;;15.52;94.01;99121.65;1705559;84;25788;-69
2022/09/18 03:01:55;;;;;;;2.50;1.92;;;;;;;15.58;93.95;99101.33;1703471;84;25669;-70
2022/09/18 03:04:25;;;;;;;5.05;2.50;;;;;;;15.62;93.78;99093.10;1677551;84;25759;-70
2022/09/18 03:07:03;;;;;;;3.45;2.27;;;;;;;15.65;93.34;99099.97;1705357;84;25838;-70
2022/09/18 03:09:33;;;;;;;3.87;2.37;;;;;;;15.70;93.91;99103.41;1705525;84;27515;-69
2022/09/18 03:12:02;;;;;;;2.85;2.40;;;;;;;15.72;93.65;99104.03;1705113;82;25858;-70
2022/09/18 03:14:30;;;;;;;4.42;3.50;;;;;;;15.77;93.96;99096.09;1696825;84;26377;-70
2022/09/18 03:16:57;;;;;;;4.17;3.27;;;;;;;15.79;94.32;99092.12;1697116;84;25794;-70
2022/09/18 03:19:24;;;;;;;5.42;2.83;;;;;;;15.78;93.67;99081.50;1697235;84;25792;-70
2022/09/18 03:21:51;;;;;;;3.37;2.98;;;;;;;15.78;93.67;99078.78;1697015;84;27468;-70
2022/09/18 03:24:20;;;;;;;3.10;2.75;;;;;;;15.81;93.71;99068.88;1697261;84;25779;-69
2022/09/18 03:26:51;;;;;;;4.62;3.15;;;;;;;15.84;93.80;99072.53;1669082;84;25795;-69
2022/09/18 03:29:19;;;;;;;3.55;2.40;;;;;;;15.87;93.88;99078.08;1669860;84;26855;-70
2022/09/18 03:31:46;;;;;;;2.22;2.02;;;;;;;15.91;93.90;99090.16;1696821;84;25829;-69
2022/09/18 03:34:13;;;;;;;3.08;2.30;;;;;;;15.94;93.80;99089.20;1697035;84;27443;-69
2022/09/18 03:36:40;;;;;;;5.30;2.20;;;;;;;15.97;93.85;99081.16;1696879;84;25799;-70
2022/09/18 03:39:08;;;;;;;2.27;1.92;;;;;;;16.03;93.82;99084.39;1694821;83;25794;-69
2022/09/18 03:41:35;;;;;;;2.17;1.98;;;;;;;16.06;93.51;99089.37;1723129;83;25827;-70
2022/09/18 03:44:02;;;;;;;2.12;1.92;;;;;;;16.09;93.63;99084.88;1723164;82;25710;-69
2022/09/18 03:46:29;;;;;;;8.75;2.72;;;;;;;16.10;93.18;99093.84;1723432;82;27510;-69
2022/09/18 03:48:58;;;;;;;2.70;1.92;;;;;;;16.14;93.19;99102.41;1730423;81;25878;-69
2022/09/18 03:51:27;;;;;;;3.52;2.17;;;;;;;16.15;92.95;99099.47;1736635;81;25759;-69
2022/09/18 03:53:54;;;;;;;2.10;1.90;;;;;;;16.18;92.96;99096.85;1736808;81;25785;-69
2022/09/18 03:56:37;;;;;;;3.72;1.98;;;;;;;16.20;92.93;99106.44;1735647;81;25772;-69
2022/09/18 03:59:14;;;;;;;5.87;2.60;;;;;;;16.20;92.60;99108.33;1734759;81;27481;-69
2022/09/18 04:01:56;;;;;;;5.10;4.60;;;;;;;16.18;92.59;99115.30;1701257;81;25803;-70
2022/09/18 04:04:27;;;;;;;6.53;4.42;;;;;;;16.19;92.52;99112.91;1736906;82;25878;-70
2022/09/18 04:07:04;;;;;;;5.80;4.45;;;;;;;16.22;92.58;99103.53;1736965;82;25776;-71
2022/09/18 04:09:49;;;;;;;4.65;4.25;;;;;;;16.24;92.83;99107.69;1736773;82;25977;-69
2022/09/18 04:12:16;;;;;;;5.85;4.45;;;;;;;16.29;92.93;99104.33;1737090;82;27442;-69
2022/09/18 04:14:44;;;;;;;6.20;4.75;;;;;;;16.33;92.92;99097.95;1737049;82;25458;-69
2022/09/18 04:17:12;;;;;;;7.85;3.65;;;;;;;16.37;93.01;99093.23;1736969;81;25529;-69
2022/09/18 04:19:41;;;;;;;5.35;3.10;;;;;;;16.38;92.43;99091.34;1736912;81;25830;-70
2022/09/18 04:22:09;;;;;;;7.70;3.17;;;;;;;16.39;92.53;99088.43;1736820;82;25442;-70
2022/09/18 04:24:38;;;;;;;3.12;2.83;;;;;;;16.43;92.96;99085.58;1736965;81;27602;-70
2022/09/18 04:27:07;;;;;;;10.50;3.05;;;;;;;16.46;92.78;99089.73;1736957;82;25796;-69
2022/09/18 04:29:35;;;;;;;2.30;1.27;;;;;;;16.50;93.21;99090.98;1729718;81;25732;-71
2022/09/18 04:32:04;;;;;;;3.25;2.05;;;;;;;16.49;92.95;99078.45;1713553;83;25793;-70
2022/09/18 04:34:31;;;;;;;4.85;1.55;;;;;;;16.50;93.29;99069.27;1713700;83;25766;-69
2022/09/18 04:36:58;;;;;;;2.80;1.82;;;;;;;16.50;92.87;99079.27;1713888;82;27666;-70
2022/09/18 04:39:28;;;;;;;3.40;2.52;;;;;;;16.47;92.45;99075.12;1728782;82;25855;-70
2022/09/18 04:41:58;;;;;;;2.33;1.60;;;;;;;16.48;92.15;99071.36;1736424;82;25768;-68
2022/09/18 04:44:25;;;;;;;1.50;1.40;;;;;;;16.50;92.40;99061.13;1737063;82;26365;-70
2022/09/18 04:46:53;;;;;;;8.93;1.50;;;;;;;16.47;91.15;99074.30;1736817;81;25791;-72
2022/09/18 04:49:20;;;;;;;1.62;1.42;;;;;;;16.45;91.23;99072.31;1736654;82;27604;-68
2022/09/18 04:51:48;;;;;;;2.52;1.85;;;;;;;16.45;91.02;99072.31;1736728;81;25744;-68
2022/09/18 04:54:15;;;;;;;3.60;1.75;;;;;;;16.48;91.12;99074.07;1736678;81;25782;-70
2022/09/18 04:56:42;;;;;;;5.80;2.02;;;;;;;16.50;90.88;99073.34;1736447;82;25782;-70
2022/09/18 04:59:10;;;;;;;1.80;1.70;;;;;;;16.54;90.82;99073.73;1736726;82;25648;-69
2022/09/18 05:01:39;;;;;;;2.27;1.60;;;;;;;16.58;90.39;99089.91;1736466;82;27345;-70
2022/09/18 05:04:10;;;;;;;2.45;1.87;;;;;;;16.61;90.63;99086.73;1736398;81;26505;-69
2022/09/18 05:06:44;;;;;;;6.65;1.70;;;;;;;16.65;90.56;99085.27;1736123;81;25745;-69
2022/09/18 05:09:11;;;;;;;3.20;1.45;;;;;;;16.71;90.88;99082.21;1736811;81;26442;-69
2022/09/18 05:11:38;;;;;;;2.83;1.60;;;;;;;16.72;90.44;99091.48;1737302;81;25728;-69
2022/09/18 05:14:05;;;;;;;2.60;1.95;;;;;;;16.73;90.40;99090.44;1736603;81;27530;-69
2022/09/18 05:16:35;;;;;;;5.62;1.52;;;;;;;16.76;90.24;99085.09;1736646;82;25778;-69
2022/09/18 05:19:22;;;;;;;4.72;1.70;;;;;;;16.72;89.30;99078.42;1736762;81;25854;-69
2022/09/18 05:21:50;;;;;;;2.17;1.60;;;;;;;16.67;88.09;99078.25;1736890;82;25704;-69
2022/09/18 05:24:18;;;;;;;2.47;2.25;;;;;;;16.59;86.84;99077.47;1736631;82;26672;-69
2022/09/18 05:26:47;;;;;;;1.67;1.47;;;;;;;16.54;86.73;99100.34;1736922;81;27082;-70
2022/09/18 05:29:16;;;;;;;2.92;1.62;;;;;;;16.45;85.40;99107.06;1731778;82;25724;-70
2022/09/18 05:31:44;;;;;;;4.50;1.60;;;;;;;16.38;85.03;99117.12;1712517;83;25759;-69
2022/09/18 05:34:11;;;;;;;4.78;1.90;;;;;;;16.33;84.06;99104.73;1712089;83;25790;-70
2022/09/18 05:36:39;;;;;;;1.98;1.57;;;;;;;16.27;84.24;99097.74;1712620;83;25844;-69
2022/09/18 05:39:06;;;;;;;2.58;1.67;;;;;;;16.23;84.89;99092.95;1724987;82;27469;-69
2022/09/18 05:41:34;;;;;;;3.98;2.33;;;;;;;16.27;85.00;99090.95;1736640;82;25837;-70
2022/09/18 05:44:03;;;;;;;2.95;2.10;;;;;;;16.28;85.24;99093.98;1736667;81;25793;-69
2022/09/18 05:46:30;;;;;;;2.55;1.42;;;;;;;16.32;85.23;99102.52;1736793;82;25736;-70
2022/09/18 05:48:59;;;;;;;1.60;1.50;;;;;;;16.38;84.76;99106.27;1732745;81;25773;-71
2022/09/18 05:51:26;;;;;;;4.40;3.05;;;;;;;16.40;84.64;99110.95;1723216;83;27461;-70
2022/09/18 05:53:54;;;;;;;3.08;1.90;;;;;;;16.46;84.53;99116.87;1722998;82;25739;-70
2022/09/18 05:56:23;;;;;;;2.77;1.80;;;;;;;16.49;84.49;99127.31;1721686;82;25690;-70
2022/09/18 05:58:50;;;;;;;3.22;1.65;;;;;;;16.52;83.82;99124.68;1723112;83;25859;-70
2022/09/18 06:01:17;;;;;;;4.00;1.60;;;;;;;16.49;83.66;99128.66;1723501;83;25729;-70
2022/09/18 06:03:50;;;;;;;2.77;2.00;;;;;;;16.43;83.46;99124.92;1721407;81;27554;-70
2022/09/18 06:06:17;;;;;;;3.40;1.67;;;;;;;16.44;83.67;99151.56;1723375;81;25743;-70
2022/09/18 06:08:45;;;;;;;2.47;1.70;;;;;;;16.48;84.02;99139.21;1723469;82;25755;-69
2022/09/18 06:11:14;;;;;;;6.15;2.00;;;;;;;16.56;83.75;99146.29;1723326;82;25760;-70
2022/09/18 06:13:41;;;;;;;4.05;1.90;;;;;;;16.63;83.70;99150.34;1723450;82;25713;-70
2022/09/18 06:16:07;;;;;;;3.70;1.82;;;;;;;16.68;83.67;99155.41;1723255;83;28889;-71
2022/09/18 06:18:36;;;;;;;2.62;1.70;;;;;;;16.71;83.00;99159.05;1721086;82;25816;-70
2022/09/18 06:21:04;;;;;;;5.60;1.67;;;;;;;16.74;82.71;99163.22;1723314;83;25728;-71
2022/09/18 06:23:32;;;;;;;4.15;1.60;;;;;;;16.80;82.09;99173.23;1723447;82;25854;-71
2022/09/18 06:26:06;;;;;;;2.02;1.65;;;;;;;16.86;81.83;99166.08;1723026;82;25941;-70
2022/09/18 06:28:34;;;;;;;2.65;2.12;;;;;;;16.92;80.86;99167.95;1723693;82;27410;-70
2022/09/18 06:31:04;;;;;;;7.20;4.85;;;;;;;16.98;80.24;99171.17;1717156;82;26416;-69
2022/09/18 06:33:35;;;;;;;9.93;1.67;;;;;;;17.04;80.20;99170.29;1714239;82;25750;-69
2022/09/18 06:36:07;;;;;;;5.53;1.80;;;;;;;17.15;78.40;99166.58;1725831;83;25921;-70
2022/09/18 06:38:36;;;;;;;5.05;2.27;;;;;;;17.28;78.49;99180.59;1707583;83;26381;-70
2022/09/18 06:41:05;;;;;;;2.50;1.40;;;;;;;17.40;78.48;99196.52;1728150;83;27462;-70
2022/09/18 06:43:35;;;;;;;2.55;1.57;;;;;;;17.50;75.34;99199.59;1726257;83;25524;-69
2022/09/18 06:46:06;;;;;;;4.28;1.40;;;;;;;17.54;76.38;99187.74;1712165;83;25745;-71
2022/09/18 06:48:35;;;;;;;1.35;1.12;;;;;;;17.66;76.19;99196.02;1727747;83;26693;-70
2022/09/18 06:51:03;;;;;;;1.90;1.12;;;;;;;17.69;73.79;99198.30;1736735;81;25841;-71
2022/09/18 06:53:32;;;;;;;2.10;1.22;;;;;;;17.66;74.37;99206.34;1736074;82;28236;-70
2022/09/18 06:56:02;;;;;;;4.10;1.20;;;;;;;17.60;73.71;99215.40;1737137;82;25913;-71
2022/09/18 06:58:31;;;;;;;1.30;1.17;;;;;;;17.60;72.39;99230.36;1736694;82;25823;-70
2022/09/18 07:00:59;;;;;;;2.35;1.12;;;;;;;17.56;72.14;99223.71;1736801;81;25804;-69
2022/09/18 07:03:28;;;;;;;2.87;0.95;;;;;;;17.50;68.41;99226.78;1736544;82;25747;-70
2022/09/18 07:06:00;;;;;;;0.80;0.80;;;;;;;17.51;69.62;99233.88;1734369;82;27657;-69
2022/09/18 07:08:29;;;;;;;1.35;0.70;;;;;;;17.55;67.90;99240.22;1735728;82;25710;-70
2022/09/18 07:11:01;;;;;;;2.92;0.60;;;;;;;17.59;67.12;99250.98;1717171;81;25768;-70
2022/09/18 07:13:36;;;;;;;1.95;0.82;;;;;;;17.63;65.10;99242.67;1707935;84;25959;-70
2022/09/18 07:16:05;;;;;;;2.65;0.70;;;;;;;17.70;64.08;99239.41;1708269;83;25798;-70
2022/09/18 07:18:33;;;;;;;2.67;0.70;;;;;;;17.68;62.83;99248.30;1708050;83;27450;-70
2022/09/18 07:21:00;;;;;;;4.22;0.88;;;;;;;17.70;62.81;99259.80;1707792;83;25922;-67
2022/09/18 07:23:31;;;;;;;0.93;0.60;;;;;;;17.62;60.78;99253.23;1707427;83;25839;-68
2022/09/18 07:26:03;;;;;;;3.90;0.50;;;;;;;17.59;61.52;99264.03;1708029;83;26432;-69
2022/09/18 07:28:30;;;;;;;0.85;0.50;;;;;;;17.58;60.22;99272.42;1707836;83;25784;-69
2022/09/18 07:31:05;;;;;;;2.45;0.80;;;;;;;17.56;60.39;99254.98;1705779;82;27508;-68
2022/09/18 07:33:34;;;;;;;0.33;0.30;;;;;;;17.58;58.02;99256.11;1704468;84;25940;-69
2022/09/18 07:36:04;;;;;;;4.62;1.05;;;;;;;17.68;56.79;99272.23;1704680;84;25770;-69
2022/09/18 07:38:36;;;;;;;1.57;0.57;;;;;;;17.74;57.41;99277.33;1699815;84;26557;-69
2022/09/18 07:41:04;;;;;;;0.20;0.20;;;;;;;17.82;55.76;99290.66;1678987;84;25725;-68
2022/09/18 07:43:33;;;;;;;1.45;0.23;;;;;;;17.92;55.82;99283.89;1700935;83;27479;-69
2022/09/18 07:46:01;;;;;;;0.28;0.25;;;;;;;17.96;55.01;99285.98;1700780;82;25953;-70
2022/09/18 07:48:30;;;;;;;0.80;0.30;;;;;;;18.01;54.54;99292.13;1701004;82;25800;-69
2022/09/18 07:50:59;;;;;;;1.25;0.45;;;;;;;18.11;55.35;99327.84;1717541;82;26000;-69
2022/09/18 07:53:28;;;;;;;5.00;0.55;;;;;;;18.12;55.49;99284.61;1723587;82;25810;-70
2022/09/18 07:55:57;;;;;;;2.92;0.40;;;;;;;18.14;55.35;99294.75;1723827;83;27562;-69
2022/09/18 07:58:25;;;;;;;1.17;0.40;;;;;;;18.23;55.26;99292.56;1723536;83;25806;-69
2022/09/18 08:00:58;;;;;;;1.20;0.30;;;;;;;18.32;54.31;99307.25;1723428;83;25858;-70
2022/09/18 08:03:26;;;;;;;1.17;0.60;;;;;;;18.44;53.63;99305.47;1723785;82;25890;-71
2022/09/18 08:05:55;;;;;;;1.02;0.20;;;;;;;18.42;53.33;99302.95;1721735;83;25945;-70
2022/09/18 08:08:23;;;;;;;3.02;2.20;;;;;;;18.44;49.14;99306.30;1713861;82;27631;-71
2022/09/18 08:11:05;;;;;;;1.10;0.40;;;;;;;18.59;46.11;99309.21;1708697;83;25768;-71
2022/09/18 08:13:40;;;;;;;4.67;0.33;;;;;;;18.64;45.11;99328.42;1726187;81;25948;-70
2022/09/18 08:16:08;;;;;;;2.17;0.30;;;;;;;18.76;45.82;99349.78;1717553;83;25733;-70
2022/09/18 08:18:56;;;;;;;2.98;0.23;;;;;;;18.83;43.48;99348.88;1750011;81;25930;-69
2022/09/18 08:21:43;;;;;;;0.95;0.40;;;;;;;18.86;42.65;99341.62;1717471;83;27381;-70
2022/09/18 08:24:11;;;;;;;0.23;0.23;;;;;;;18.92;42.07;99374.26;1749996;81;25813;-70
2022/09/18 08:26:38;;;;;;;0.75;0.50;;;;;;;18.98;41.57;99354.81;1749836;81;25790;-70
2022/09/18 08:29:06;;;;;;;0.70;0.20;;;;;;;19.00;42.36;99351.34;1746564;81;25826;-69
2022/09/18 08:31:34;;;;;;;0.15;0.10;;;;;;;19.15;42.13;99352.33;1703950;84;26557;-70
2022/09/18 08:34:02;;;;;;;0.33;0.33;;;;;;;19.20;42.03;99348.92;1704317;83;27491;-69
2022/09/18 08:36:31;;;;;;;4.08;0.20;;;;;;;19.35;42.33;99351.27;1704605;84;25738;-70
2022/09/18 08:39:02;;;;;;;1.45;0.20;;;;;;;19.51;40.06;99360.17;1726928;81;25790;-70
2022/09/18 08:42:16;;;;;;;0.60;0.20;;;;;;;19.56;39.55;99352.67;1733517;82;26065;-70
2022/09/18 08:44:59;;;;;;;0.20;0.10;;;;;;;19.62;39.15;99350.38;1750091;81;25759;-70
2022/09/18 08:47:30;;;;;;;0.20;0.20;;;;;;;19.69;38.50;99366.66;1737157;82;28276;-69
2022/09/18 08:50:08;;;;;;;1.12;0.28;;;;;;;19.75;38.25;99342.53;1728735;81;25911;-69
2022/09/18 08:52:40;;;;;;;1.00;0.30;;;;;;;19.88;37.66;99362.55;1736568;82;25717;-69
2022/09/18 08:55:38;;;;;;;1.60;0.20;;;;;;;19.95;36.27;99380.47;1748948;81;26629;-69
2022/09/18 08:58:20;;;;;;;1.98;0.30;;;;;;;20.10;36.24;99384.14;1727625;82;25907;-71
2022/09/18 09:00:57;;;;;;;2.43;0.50;;;;;;;20.23;37.10;99374.09;1750304;81;28103;-71
2022/09/18 09:03:43;;;;;;;3.47;0.20;;;;;;;20.44;37.56;99404.11;1735281;82;25979;-71
2022/09/18 09:06:45;;;;;;;9.83;0.98;;;;;;;20.68;36.87;99376.80;1749874;81;25782;-68
2022/09/18 09:09:36;;;;;;;1.12;0.40;;;;;;;21.09;34.87;99388.17;1737518;82;25889;-70
2022/09/18 09:12:26;;;;;;;0.90;0.30;;;;;;;21.50;35.60;99394.23;1749825;81;25967;-70
2022/09/18 09:15:29;;;;;;;0.75;0.20;;;;;;;21.70;34.32;99408.89;1736111;82;27497;-70
2022/09/18 09:18:16;;;;;;;0.20;0.20;;;;;;;21.11;34.32;99436.63;1749634;81;25842;-72
2022/09/18 09:20:57;;;;;;;4.00;0.75;;;;;;;20.69;35.91;99409.89;1737351;82;25750;-71
2022/09/18 09:23:37;;;;;;;3.20;0.40;;;;;;;20.40;36.31;99411.09;1749686;81;25812;-70
2022/09/18 09:26:14;;;;;;;3.02;0.30;;;;;;;20.15;36.59;99426.61;1735516;82;25959;-69
2022/09/18 09:28:59;;;;;;;0.25;0.23;;;;;;;19.79;36.32;99441.97;1725886;81;28830;-71
2022/09/18 09:31:48;;;;;;;1.30;0.25;;;;;;;19.52;36.42;99442.81;1710678;83;26041;-70
2022/09/18 09:34:29;;;;;;;0.20;0.10;;;;;;;19.38;36.80;99444.86;1712490;83;25763;-70
2022/09/18 09:37:02;;;;;;;3.83;0.20;;;;;;;19.37;36.68;99450.00;1710990;83;26559;-69
2022/09/18 09:39:43;;;;;;;0.20;0.20;;;;;;;19.46;36.59;99458.73;1724152;82;25798;-71
2022/09/18 09:42:43;;;;;;;1.12;0.33;;;;;;;19.42;36.82;99457.50;1697217;84;28506;-71
2022/09/18 09:45:45;;;;;;;3.02;0.30;;;;;;;19.34;37.22;99465.47;1695463;83;26693;-70
2022/09/18 09:48:34;;;;;;;0.17;0.13;;;;;;;19.16;36.57;99469.00;1727084;81;25746;-70
2022/09/18 09:51:29;;;;;;;0.53;0.30;;;;;;;19.11;37.23;99474.30;1700000;84;26037;-70
2022/09/18 09:54:00;;;;;;;3.83;0.30;;;;;;;19.69;37.15;99470.33;1688509;84;25825;-70
2022/09/18 09:56:38;;;;;;;7.12;0.60;;;;;;;19.59;35.41;99509.03;1707876;83;27597;-70
2022/09/18 09:59:20;;;;;;;0.75;0.53;;;;;;;19.33;36.07;99495.16;1707751;84;25803;-70
2022/09/18 10:02:19;;;;;;;0.30;0.30;;;;;;;19.12;37.48;99507.31;1697505;82;25771;-70
2022/09/18 10:04:52;;;;;;;2.12;0.20;;;;;;;18.99;42.56;99523.26;1704268;84;26500;-71
2022/09/18 10:07:44;;;;;;;2.00;0.57;;;;;;;18.63;44.54;99535.64;1707237;83;25888;-70
2022/09/18 10:10:29;;;;;;;0.20;0.20;;;;;;;18.33;45.99;99544.40;1707576;82;27558;-70
2022/09/18 10:13:05;;;;;;;2.27;0.30;;;;;;;18.02;47.31;99551.46;1707563;82;25697;-69
2022/09/18 10:15:41;;;;;;;1.25;0.30;;;;;;;17.68;48.60;99555.61;1704443;84;25986;-70
2022/09/18 10:18:18;;;;;;;0.30;0.30;;;;;;;17.46;49.32;99567.25;1707457;82;25820;-71
2022/09/18 10:20:47;;;;;;;0.75;0.28;;;;;;;17.20;49.91;99566.23;1706754;84;25876;-71
2022/09/18 10:23:30;;;;;;;5.17;0.40;;;;;;;17.06;50.39;99574.90;1707476;82;26919;-68
2022/09/18 10:26:00;;;;;;;24.80;0.62;;;;;;;16.94;50.35;99587.41;1702807;84;25856;-71
2022/09/18 10:28:29;;;;;;;0.68;0.45;;;;;;;16.79;50.87;99599.28;1681190;83;25835;-70
2022/09/18 10:31:05;;;;;;;0.20;0.20;;;;;;;16.83;51.34;99600.53;1656581;83;26598;-71
2022/09/18 10:33:46;;;;;;;2.83;1.40;;;;;;;17.06;50.90;99603.42;1679870;83;25910;-70
2022/09/18 10:36:37;;;;;;;5.90;0.70;;;;;;;17.19;51.10;99606.67;1680395;83;27485;-71
2022/09/18 10:39:30;;;;;;;4.03;0.35;;;;;;;18.10;50.26;99596.94;1680251;85;25851;-70
2022/09/18 10:42:06;;;;;;;12.50;0.90;;;;;;;19.13;50.41;99615.30;1665275;86;25761;-71
2022/09/18 10:44:39;;;;;;;0.70;0.30;;;;;;;21.15;48.36;99603.77;1679222;84;26454;-71
2022/09/18 10:47:17;;;;;;;;;;;;;;;21.78;46.31;99612.97;1682606;84;26045;-72
2022/09/18 10:50:06;;;;;;;;;;;;;;;21.77;43.54;99608.56;1682949;83;27466;-71
2022/09/18 10:52:39;;;;;;;;;;;;;;;21.46;43.80;99618.22;1682460;84;25748;-71
2022/09/18 10:55:17;;;;;;;;;;;;;;;21.18;41.92;99624.34;1681858;83;25757;-70
2022/09/18 10:58:01;;;;;;;;;;;;;;;21.11;41.02;99627.20;1681557;84;25934;-70
2022/09/18 11:00:33;;;;;;;;;;;;;;;20.92;41.57;99640.94;1682794;85;26438;-72
2022/09/18 11:03:23;;;;;;;;;;;;;;;21.79;40.56;99625.03;1682619;85;27481;-72
2022/09/18 11:05:59;;;;;;;;;;;;;;;22.88;39.40;99631.41;1680684;85;25806;-71
2022/09/18 11:08:32;;;;;;;;;;;;;;;24.26;37.62;99632.52;1682551;85;25848;-70
2022/09/18 11:11:08;;;;;;;;;;;;;;;24.69;38.39;99645.45;1682718;83;25866;-70
2022/09/18 11:13:39;;;;;;;;;;;;;;;24.43;36.84;99654.45;1682487;85;26327;-71
2022/09/18 11:16:07;;;;;;;;;;;;;;;24.07;36.32;99663.86;1682230;84;27397;-69
2022/09/18 11:18:34;;;;;;;;;;;;;;;23.53;36.77;99673.18;1682909;85;26015;-70
2022/09/18 11:21:04;;;;;;;;;;;;;;;22.99;35.22;99674.41;1682784;85;26360;-70
2022/09/18 11:23:33;;;;;;;;;;;;;;;22.89;35.28;99674.20;1683008;83;25870;-70
2022/09/18 11:26:11;;;;;;;;;;;;;;;23.43;37.17;99683.42;1682732;85;25752;-71
2022/09/18 11:28:38;;;;;;;;;;;;;;;23.89;35.25;99681.43;1683033;85;27555;-71
2022/09/18 11:31:15;;;;;;;;;;;;;;;24.29;36.53;99684.23;1633169;86;25880;-70
2022/09/18 11:33:48;;;;;;;;;;;;;;;24.46;34.73;99688.28;1653022;86;25836;-70
2022/09/18 11:36:24;;;;;;;;;;;;;;;25.06;36.30;99687.08;1654354;85;25862;-70
2022/09/18 11:38:51;;;;;;;;;;;;;;;25.12;33.88;99694.31;1694806;83;25786;-70
2022/09/18 11:41:24;;;;;;;;;;;;;;;24.79;32.66;99705.76;1711761;82;28196;-71
2022/09/18 11:44:00;;;;;;;;;;;;;;;24.96;34.05;99712.04;1701821;83;25748;-70
2022/09/18 11:46:48;;;;;;;;;;;;;;;25.30;33.62;99704.95;1680442;84;25963;-71
2022/09/18 11:49:20;;;;;;;;;;;;;;;25.08;32.00;99707.76;1681796;84;25858;-70
2022/09/18 11:51:56;;;;;;;;;;;;;;;25.15;32.70;99704.25;1696103;83;25774;-71
2022/09/18 11:54:51;;;;;;;;;;;;;;;25.41;32.29;99710.59;1706082;82;27473;-74
2022/09/18 11:57:33;;;;;;;;;;;;;;;25.48;31.96;99704.32;1706551;84;25522;-73
2022/09/18 12:00:08;;;;;;;;;;;;;;;25.33;33.04;99712.41;1706804;83;25734;-75
2022/09/18 12:02:52;;;;;;;;;;;;;;;25.59;32.43;99714.34;1706230;83;26564;-73
2022/09/18 12:05:25;;;;;;;;;;;;;;;25.85;32.25;99718.67;1706522;83;25308;-73
2022/09/18 12:08:01;;;;;;;;;;;;;;;26.13;31.11;99738.75;1706715;82;27687;-72
2022/09/18 12:10:38;;;;;;;;;;;;;;;26.04;30.49;99734.80;1694360;83;26349;-74
2022/09/18 12:13:25;;;;;;;;;;;;;;;25.61;30.81;99741.05;1704716;82;25837;-73
2022/09/18 12:16:04;;;;;;;;;;;;;;;24.90;31.43;99741.93;1705569;83;25806;-72
2022/09/18 12:18:34;;;;;;;;;;;;;;;24.48;32.76;99741.09;1706124;83;25784;-73